sensor_id;sensor_type;location;lat;lon;timestamp;P1;durP1;ratioP1;P2;durP2;ratioP2
6133;SDS011;3098;42.678;23.364;2024-03-23T00:54:45;12.32;;;6.70;;
6133;SDS011;3098;42.678;23.364;2024-03-23T00:57:11;11.35;;;5.63;;
6133;SDS011;3098;42.678;23.364;2024-03-23T00:59:37;12.55;;;6.03;;
6133;SDS011;3098;42.678;23.364;2024-03-23T01:02:03;11.73;;;5.90;;
6133;SDS011;3098;42.678;23.364;2024-03-23T01:04:28;11.45;;;5.47;;
6133;SDS011;3098;42.678;23.364;2024-03-23T01:06:54;13.80;;;5.35;;
6133;SDS011;3098;42.678;23.364;2024-03-23T01:09:19;11.52;;;5.40;;
6133;SDS011;3098;42.678;23.364;2024-03-23T01:11:46;11.85;;;6.07;;
6133;SDS011;3098;42.678;23.364;2024-03-23T01:14:11;14.68;;;6.25;;
6133;SDS011;3098;42.678;23.364;2024-03-23T01:16:37;14.65;;;6.13;;
6133;SDS011;3098;42.678;23.364;2024-03-23T01:19:03;11.50;;;5.95;;
6133;SDS011;3098;42.678;23.364;2024-03-23T01:21:28;11.07;;;5.40;;
6133;SDS011;3098;42.678;23.364;2024-03-23T01:23:54;12.75;;;6.32;;
6133;SDS011;3098;42.678;23.364;2024-03-23T01:26:20;17.30;;;7.38;;
6133;SDS011;3098;42.678;23.364;2024-03-23T01:28:45;13.23;;;6.43;;
6133;SDS011;3098;42.678;23.364;2024-03-23T01:31:11;11.68;;;6.63;;
6133;SDS011;3098;42.678;23.364;2024-03-23T01:33:37;14.82;;;7.20;;
6133;SDS011;3098;42.678;23.364;2024-03-23T01:36:02;17.45;;;9.07;;
6133;SDS011;3098;42.678;23.364;2024-03-23T01:38:28;18.83;;;8.25;;
6133;SDS011;3098;42.678;23.364;2024-03-23T01:40:57;19.65;;;8.50;;
6133;SDS011;3098;42.678;23.364;2024-03-23T01:43:23;20.90;;;8.68;;
6133;SDS011;3098;42.678;23.364;2024-03-23T01:45:50;17.73;;;8.93;;
6133;SDS011;3098;42.678;23.364;2024-03-23T01:48:17;14.82;;;8.05;;
6133;SDS011;3098;42.678;23.364;2024-03-23T01:50:42;16.92;;;8.90;;
6133;SDS011;3098;42.678;23.364;2024-03-23T01:53:08;19.42;;;10.05;;
6133;SDS011;3098;42.678;23.364;2024-03-23T01:55:34;20.77;;;11.38;;
6133;SDS011;3098;42.678;23.364;2024-03-23T01:58:00;20.52;;;10.68;;
6133;SDS011;3098;42.678;23.364;2024-03-23T02:00:25;22.27;;;10.32;;
6133;SDS011;3098;42.678;23.364;2024-03-23T02:02:53;20.85;;;9.88;;
6133;SDS011;3098;42.678;23.364;2024-03-23T02:05:18;19.73;;;10.02;;
6133;SDS011;3098;42.678;23.364;2024-03-23T02:07:44;19.60;;;9.75;;
6133;SDS011;3098;42.678;23.364;2024-03-23T02:10:10;16.77;;;9.73;;
6133;SDS011;3098;42.678;23.364;2024-03-23T02:12:38;18.85;;;10.23;;
6133;SDS011;3098;42.678;23.364;2024-03-23T02:15:03;16.63;;;8.68;;
6133;SDS011;3098;42.678;23.364;2024-03-23T02:17:30;19.77;;;9.90;;
6133;SDS011;3098;42.678;23.364;2024-03-23T02:19:57;22.23;;;10.57;;
6133;SDS011;3098;42.678;23.364;2024-03-23T02:22:23;21.67;;;10.50;;
6133;SDS011;3098;42.678;23.364;2024-03-23T02:24:48;17.48;;;9.57;;
6133;SDS011;3098;42.678;23.364;2024-03-23T02:27:14;18.90;;;9.32;;
6133;SDS011;3098;42.678;23.364;2024-03-23T02:29:40;22.10;;;9.15;;
6133;SDS011;3098;42.678;23.364;2024-03-23T02:32:06;20.58;;;8.80;;
6133;SDS011;3098;42.678;23.364;2024-03-23T02:34:34;15.93;;;7.85;;
6133;SDS011;3098;42.678;23.364;2024-03-23T02:36:59;16.38;;;8.43;;
6133;SDS011;3098;42.678;23.364;2024-03-23T02:39:25;13.27;;;7.25;;
6133;SDS011;3098;42.678;23.364;2024-03-23T02:41:50;20.27;;;9.13;;
6133;SDS011;3098;42.678;23.364;2024-03-23T02:44:16;20.65;;;9.15;;
6133;SDS011;3098;42.678;23.364;2024-03-23T02:46:42;17.80;;;9.20;;
6133;SDS011;3098;42.678;23.364;2024-03-23T02:49:07;21.23;;;9.45;;
6133;SDS011;3098;42.678;23.364;2024-03-23T02:51:33;18.48;;;9.18;;
6133;SDS011;3098;42.678;23.364;2024-03-23T02:53:58;20.80;;;9.48;;
6133;SDS011;3098;42.678;23.364;2024-03-23T02:56:24;17.17;;;9.48;;
6133;SDS011;3098;42.678;23.364;2024-03-23T02:58:50;16.13;;;8.02;;
6133;SDS011;3098;42.678;23.364;2024-03-23T03:01:16;16.50;;;8.20;;
6133;SDS011;3098;42.678;23.364;2024-03-23T03:03:42;17.35;;;9.23;;
6133;SDS011;3098;42.678;23.364;2024-03-23T03:06:09;17.90;;;8.90;;
6133;SDS011;3098;42.678;23.364;2024-03-23T03:08:34;14.68;;;8.10;;
6133;SDS011;3098;42.678;23.364;2024-03-23T03:11:00;20.95;;;10.13;;
6133;SDS011;3098;42.678;23.364;2024-03-23T03:13:26;22.52;;;10.02;;
6133;SDS011;3098;42.678;23.364;2024-03-23T03:15:52;20.90;;;9.60;;
6133;SDS011;3098;42.678;23.364;2024-03-23T03:18:18;23.02;;;10.70;;
6133;SDS011;3098;42.678;23.364;2024-03-23T03:20:44;22.55;;;11.00;;
6133;SDS011;3098;42.678;23.364;2024-03-23T03:23:11;19.75;;;9.40;;
6133;SDS011;3098;42.678;23.364;2024-03-23T03:25:36;23.33;;;12.18;;
6133;SDS011;3098;42.678;23.364;2024-03-23T03:28:02;20.95;;;10.45;;
6133;SDS011;3098;42.678;23.364;2024-03-23T03:30:29;28.48;;;11.82;;
6133;SDS011;3098;42.678;23.364;2024-03-23T03:32:54;20.08;;;10.20;;
6133;SDS011;3098;42.678;23.364;2024-03-23T03:35:20;20.88;;;11.55;;
6133;SDS011;3098;42.678;23.364;2024-03-23T03:37:46;22.20;;;11.15;;
6133;SDS011;3098;42.678;23.364;2024-03-23T03:40:11;22.42;;;11.82;;
6133;SDS011;3098;42.678;23.364;2024-03-23T03:42:37;21.30;;;11.90;;
6133;SDS011;3098;42.678;23.364;2024-03-23T03:45:03;20.55;;;11.35;;
6133;SDS011;3098;42.678;23.364;2024-03-23T03:47:30;21.92;;;11.73;;
6133;SDS011;3098;42.678;23.364;2024-03-23T03:49:55;23.95;;;11.57;;
6133;SDS011;3098;42.678;23.364;2024-03-23T03:52:21;25.52;;;12.68;;
6133;SDS011;3098;42.678;23.364;2024-03-23T03:54:47;23.40;;;11.48;;
6133;SDS011;3098;42.678;23.364;2024-03-23T03:57:13;26.38;;;12.32;;
6133;SDS011;3098;42.678;23.364;2024-03-23T03:59:38;29.95;;;11.70;;
6133;SDS011;3098;42.678;23.364;2024-03-23T04:02:05;33.65;;;11.98;;
6133;SDS011;3098;42.678;23.364;2024-03-23T04:04:30;23.52;;;10.45;;
6133;SDS011;3098;42.678;23.364;2024-03-23T04:07:02;23.63;;;11.25;;
6133;SDS011;3098;42.678;23.364;2024-03-23T04:09:30;24.83;;;11.27;;
6133;SDS011;3098;42.678;23.364;2024-03-23T04:11:55;25.38;;;12.60;;
6133;SDS011;3098;42.678;23.364;2024-03-23T04:14:21;29.42;;;11.85;;
6133;SDS011;3098;42.678;23.364;2024-03-23T04:16:47;23.92;;;12.50;;
6133;SDS011;3098;42.678;23.364;2024-03-23T04:19:12;25.15;;;12.35;;
6133;SDS011;3098;42.678;23.364;2024-03-23T04:21:38;26.88;;;12.70;;
6133;SDS011;3098;42.678;23.364;2024-03-23T04:24:04;26.58;;;12.23;;
6133;SDS011;3098;42.678;23.364;2024-03-23T04:26:39;27.50;;;13.15;;
6133;SDS011;3098;42.678;23.364;2024-03-23T04:29:06;21.98;;;11.52;;
6133;SDS011;3098;42.678;23.364;2024-03-23T04:31:32;25.20;;;11.43;;
6133;SDS011;3098;42.678;23.364;2024-03-23T04:33:59;25.73;;;12.63;;
6133;SDS011;3098;42.678;23.364;2024-03-23T04:36:25;24.80;;;11.90;;
6133;SDS011;3098;42.678;23.364;2024-03-23T04:38:51;19.90;;;9.50;;
6133;SDS011;3098;42.678;23.364;2024-03-23T04:41:18;24.65;;;9.98;;
6133;SDS011;3098;42.678;23.364;2024-03-23T04:43:44;21.40;;;11.52;;
6133;SDS011;3098;42.678;23.364;2024-03-23T04:46:09;24.30;;;10.20;;
6133;SDS011;3098;42.678;23.364;2024-03-23T04:48:35;20.52;;;10.90;;
6133;SDS011;3098;42.678;23.364;2024-03-23T04:51:01;19.15;;;9.23;;
6133;SDS011;3098;42.678;23.364;2024-03-23T04:53:27;21.45;;;9.95;;
6133;SDS011;3098;42.678;23.364;2024-03-23T04:55:56;20.65;;;9.52;;
6133;SDS011;3098;42.678;23.364;2024-03-23T04:58:24;17.98;;;9.23;;
6133;SDS011;3098;42.678;23.364;2024-03-23T05:00:53;20.83;;;10.15;;
6133;SDS011;3098;42.678;23.364;2024-03-23T05:03:22;22.55;;;9.07;;
6133;SDS011;3098;42.678;23.364;2024-03-23T05:05:48;15.95;;;8.25;;
6133;SDS011;3098;42.678;23.364;2024-03-23T05:08:14;14.52;;;7.85;;
6133;SDS011;3098;42.678;23.364;2024-03-23T05:10:41;14.65;;;8.18;;
6133;SDS011;3098;42.678;23.364;2024-03-23T05:13:07;17.45;;;8.85;;
6133;SDS011;3098;42.678;23.364;2024-03-23T05:15:33;13.93;;;7.22;;
6133;SDS011;3098;42.678;23.364;2024-03-23T05:17:59;15.57;;;7.28;;
6133;SDS011;3098;42.678;23.364;2024-03-23T05:20:24;13.07;;;7.63;;
6133;SDS011;3098;42.678;23.364;2024-03-23T05:22:50;12.70;;;6.75;;
6133;SDS011;3098;42.678;23.364;2024-03-23T05:25:16;13.68;;;6.40;;
6133;SDS011;3098;42.678;23.364;2024-03-23T05:27:41;15.10;;;7.22;;
6133;SDS011;3098;42.678;23.364;2024-03-23T05:30:07;8.60;;;5.28;;
6133;SDS011;3098;42.678;23.364;2024-03-23T05:32:34;13.57;;;5.82;;
6133;SDS011;3098;42.678;23.364;2024-03-23T05:34:59;11.88;;;6.53;;
6133;SDS011;3098;42.678;23.364;2024-03-23T05:37:25;12.27;;;6.43;;
6133;SDS011;3098;42.678;23.364;2024-03-23T05:39:51;10.55;;;6.18;;
6133;SDS011;3098;42.678;23.364;2024-03-23T05:42:17;16.08;;;7.57;;
6133;SDS011;3098;42.678;23.364;2024-03-23T05:44:46;17.08;;;7.07;;
6133;SDS011;3098;42.678;23.364;2024-03-23T05:47:12;9.75;;;6.07;;
6133;SDS011;3098;42.678;23.364;2024-03-23T05:49:40;11.77;;;6.75;;
6133;SDS011;3098;42.678;23.364;2024-03-23T05:52:09;12.80;;;6.25;;
6133;SDS011;3098;42.678;23.364;2024-03-23T05:54:35;17.83;;;8.05;;
6133;SDS011;3098;42.678;23.364;2024-03-23T05:57:01;12.00;;;7.05;;
6133;SDS011;3098;42.678;23.364;2024-03-23T05:59:27;10.65;;;6.97;;
6133;SDS011;3098;42.678;23.364;2024-03-23T06:01:53;15.88;;;7.97;;
6133;SDS011;3098;42.678;23.364;2024-03-23T06:04:20;12.93;;;6.90;;
6133;SDS011;3098;42.678;23.364;2024-03-23T06:06:46;13.10;;;6.45;;
6133;SDS011;3098;42.678;23.364;2024-03-23T06:09:12;11.85;;;6.68;;
6133;SDS011;3098;42.678;23.364;2024-03-23T06:11:38;12.20;;;6.05;;
6133;SDS011;3098;42.678;23.364;2024-03-23T06:14:03;10.75;;;6.63;;
6133;SDS011;3098;42.678;23.364;2024-03-23T06:16:29;20.38;;;11.15;;
6133;SDS011;3098;42.678;23.364;2024-03-23T06:18:56;96.57;;;46.53;;
6133;SDS011;3098;42.678;23.364;2024-03-23T06:21:23;9.10;;;6.10;;
6133;SDS011;3098;42.678;23.364;2024-03-23T06:23:51;12.35;;;6.43;;
6133;SDS011;3098;42.678;23.364;2024-03-23T06:26:18;11.70;;;6.30;;
6133;SDS011;3098;42.678;23.364;2024-03-23T06:28:44;10.35;;;6.38;;
6133;SDS011;3098;42.678;23.364;2024-03-23T06:31:10;11.35;;;7.13;;
6133;SDS011;3098;42.678;23.364;2024-03-23T06:33:36;10.70;;;7.07;;
6133;SDS011;3098;42.678;23.364;2024-03-23T06:36:03;12.27;;;7.35;;
6133;SDS011;3098;42.678;23.364;2024-03-23T06:38:32;14.00;;;7.18;;
6133;SDS011;3098;42.678;23.364;2024-03-23T06:40:58;11.73;;;7.80;;
6133;SDS011;3098;42.678;23.364;2024-03-23T06:43:23;14.80;;;8.18;;
6133;SDS011;3098;42.678;23.364;2024-03-23T06:45:53;13.63;;;8.10;;
6133;SDS011;3098;42.678;23.364;2024-03-23T06:48:18;18.70;;;8.48;;
6133;SDS011;3098;42.678;23.364;2024-03-23T06:50:45;15.45;;;8.10;;
6133;SDS011;3098;42.678;23.364;2024-03-23T06:53:15;14.30;;;8.68;;
6133;SDS011;3098;42.678;23.364;2024-03-23T06:55:41;15.02;;;8.23;;
6133;SDS011;3098;42.678;23.364;2024-03-23T06:58:07;12.75;;;7.78;;
6133;SDS011;3098;42.678;23.364;2024-03-23T07:00:33;14.90;;;7.82;;
6133;SDS011;3098;42.678;23.364;2024-03-23T07:02:59;12.07;;;7.10;;
6133;SDS011;3098;42.678;23.364;2024-03-23T07:05:25;12.63;;;7.32;;
6133;SDS011;3098;42.678;23.364;2024-03-23T07:07:51;12.48;;;7.47;;
6133;SDS011;3098;42.678;23.364;2024-03-23T07:10:17;14.80;;;8.18;;
6133;SDS011;3098;42.678;23.364;2024-03-23T07:12:44;18.83;;;7.88;;
6133;SDS011;3098;42.678;23.364;2024-03-23T07:15:09;13.93;;;8.02;;
6133;SDS011;3098;42.678;23.364;2024-03-23T07:17:35;14.85;;;8.27;;
6133;SDS011;3098;42.678;23.364;2024-03-23T07:20:01;14.27;;;7.93;;
6133;SDS011;3098;42.678;23.364;2024-03-23T07:22:31;16.23;;;8.02;;
6133;SDS011;3098;42.678;23.364;2024-03-23T07:25:00;15.60;;;8.88;;
6133;SDS011;3098;42.678;23.364;2024-03-23T07:27:27;18.40;;;8.02;;
6133;SDS011;3098;42.678;23.364;2024-03-23T07:29:52;12.48;;;7.30;;
6133;SDS011;3098;42.678;23.364;2024-03-23T07:32:18;12.30;;;7.75;;
6133;SDS011;3098;42.678;23.364;2024-03-23T07:34:43;12.95;;;8.63;;
6133;SDS011;3098;42.678;23.364;2024-03-23T07:37:12;12.45;;;8.07;;
6133;SDS011;3098;42.678;23.364;2024-03-23T07:39:37;13.65;;;7.80;;
6133;SDS011;3098;42.678;23.364;2024-03-23T07:42:04;11.52;;;7.18;;
6133;SDS011;3098;42.678;23.364;2024-03-23T07:44:30;13.40;;;7.45;;
6133;SDS011;3098;42.678;23.364;2024-03-23T07:46:56;13.77;;;8.00;;
6133;SDS011;3098;42.678;23.364;2024-03-23T07:49:22;14.98;;;8.55;;
6133;SDS011;3098;42.678;23.364;2024-03-23T07:51:48;15.95;;;8.90;;
6133;SDS011;3098;42.678;23.364;2024-03-23T07:54:13;10.75;;;7.57;;
6133;SDS011;3098;42.678;23.364;2024-03-23T07:56:39;15.27;;;9.38;;
6133;SDS011;3098;42.678;23.364;2024-03-23T07:59:04;22.13;;;11.07;;
6133;SDS011;3098;42.678;23.364;2024-03-23T08:01:30;19.55;;;9.57;;
6133;SDS011;3098;42.678;23.364;2024-03-23T08:03:55;15.75;;;9.38;;
6133;SDS011;3098;42.678;23.364;2024-03-23T08:06:21;22.15;;;9.05;;
6133;SDS011;3098;42.678;23.364;2024-03-23T08:08:49;17.10;;;10.13;;
6133;SDS011;3098;42.678;23.364;2024-03-23T08:11:24;15.82;;;8.98;;
6133;SDS011;3098;42.678;23.364;2024-03-23T08:13:54;16.38;;;8.75;;
6133;SDS011;3098;42.678;23.364;2024-03-23T08:16:21;13.88;;;8.18;;
6133;SDS011;3098;42.678;23.364;2024-03-23T08:18:47;14.38;;;8.35;;
6133;SDS011;3098;42.678;23.364;2024-03-23T08:21:13;16.52;;;9.30;;
6133;SDS011;3098;42.678;23.364;2024-03-23T08:23:39;17.13;;;8.93;;
6133;SDS011;3098;42.678;23.364;2024-03-23T08:26:06;17.92;;;8.90;;
6133;SDS011;3098;42.678;23.364;2024-03-23T08:28:33;16.25;;;8.98;;
6133;SDS011;3098;42.678;23.364;2024-03-23T08:31:12;14.30;;;8.20;;
6133;SDS011;3098;42.678;23.364;2024-03-23T08:33:39;16.55;;;8.27;;
6133;SDS011;3098;42.678;23.364;2024-03-23T08:36:08;13.35;;;8.27;;
6133;SDS011;3098;42.678;23.364;2024-03-23T08:38:37;12.32;;;8.30;;
6133;SDS011;3098;42.678;23.364;2024-03-23T08:41:03;15.30;;;9.20;;
6133;SDS011;3098;42.678;23.364;2024-03-23T08:43:31;15.70;;;9.40;;
6133;SDS011;3098;42.678;23.364;2024-03-23T08:48:34;15.35;;;9.20;;
6133;SDS011;3098;42.678;23.364;2024-03-23T08:53:28;15.93;;;8.35;;
6133;SDS011;3098;42.678;23.364;2024-03-23T08:55:58;18.25;;;9.82;;
6133;SDS011;3098;42.678;23.364;2024-03-23T08:58:25;13.38;;;8.48;;
6133;SDS011;3098;42.678;23.364;2024-03-23T09:00:53;18.73;;;9.05;;
6133;SDS011;3098;42.678;23.364;2024-03-23T09:03:26;13.57;;;8.07;;
6133;SDS011;3098;42.678;23.364;2024-03-23T09:05:53;13.20;;;8.32;;
6133;SDS011;3098;42.678;23.364;2024-03-23T09:08:20;12.68;;;8.05;;
6133;SDS011;3098;42.678;23.364;2024-03-23T09:10:46;29.80;;;10.48;;
6133;SDS011;3098;42.678;23.364;2024-03-23T09:13:13;17.08;;;8.43;;
6133;SDS011;3098;42.678;23.364;2024-03-23T09:15:46;14.35;;;8.40;;
6133;SDS011;3098;42.678;23.364;2024-03-23T09:18:16;13.35;;;8.35;;
6133;SDS011;3098;42.678;23.364;2024-03-23T09:20:41;18.70;;;8.82;;
6133;SDS011;3098;42.678;23.364;2024-03-23T09:23:08;16.20;;;8.60;;
6133;SDS011;3098;42.678;23.364;2024-03-23T09:25:37;14.65;;;8.55;;
6133;SDS011;3098;42.678;23.364;2024-03-23T09:28:04;15.02;;;8.07;;
6133;SDS011;3098;42.678;23.364;2024-03-23T09:30:30;11.85;;;7.90;;
6133;SDS011;3098;42.678;23.364;2024-03-23T09:32:58;15.07;;;8.35;;
6133;SDS011;3098;42.678;23.364;2024-03-23T09:35:24;12.25;;;8.82;;
6133;SDS011;3098;42.678;23.364;2024-03-23T09:37:50;14.70;;;8.02;;
6133;SDS011;3098;42.678;23.364;2024-03-23T09:40:15;12.43;;;8.30;;
6133;SDS011;3098;42.678;23.364;2024-03-23T09:42:41;12.98;;;8.23;;
6133;SDS011;3098;42.678;23.364;2024-03-23T09:45:16;17.10;;;8.85;;
6133;SDS011;3098;42.678;23.364;2024-03-23T09:47:45;14.25;;;7.90;;
6133;SDS011;3098;42.678;23.364;2024-03-23T09:50:12;12.35;;;8.35;;
6133;SDS011;3098;42.678;23.364;2024-03-23T09:52:39;14.75;;;7.93;;
6133;SDS011;3098;42.678;23.364;2024-03-23T09:55:07;14.10;;;7.75;;
6133;SDS011;3098;42.678;23.364;2024-03-23T09:57:34;13.10;;;7.70;;
6133;SDS011;3098;42.678;23.364;2024-03-23T10:00:00;15.75;;;8.02;;
6133;SDS011;3098;42.678;23.364;2024-03-23T10:02:26;14.50;;;8.15;;
6133;SDS011;3098;42.678;23.364;2024-03-23T10:04:54;10.63;;;7.03;;
6133;SDS011;3098;42.678;23.364;2024-03-23T10:07:20;12.65;;;7.47;;
6133;SDS011;3098;42.678;23.364;2024-03-23T10:09:49;16.77;;;10.65;;
6133;SDS011;3098;42.678;23.364;2024-03-23T10:12:17;12.10;;;7.68;;
6133;SDS011;3098;42.678;23.364;2024-03-23T10:14:44;14.13;;;7.18;;
6133;SDS011;3098;42.678;23.364;2024-03-23T10:17:17;9.48;;;6.45;;
6133;SDS011;3098;42.678;23.364;2024-03-23T10:19:48;16.30;;;6.93;;
6133;SDS011;3098;42.678;23.364;2024-03-23T10:22:17;13.70;;;7.10;;
6133;SDS011;3098;42.678;23.364;2024-03-23T10:24:46;10.50;;;6.97;;
6133;SDS011;3098;42.678;23.364;2024-03-23T10:27:18;9.55;;;5.63;;
6133;SDS011;3098;42.678;23.364;2024-03-23T10:29:48;7.85;;;4.88;;
6133;SDS011;3098;42.678;23.364;2024-03-23T10:32:15;13.50;;;6.03;;
6133;SDS011;3098;42.678;23.364;2024-03-23T10:34:42;11.25;;;7.10;;
6133;SDS011;3098;42.678;23.364;2024-03-23T10:37:08;11.10;;;6.07;;
6133;SDS011;3098;42.678;23.364;2024-03-23T10:42:03;12.57;;;7.13;;
6133;SDS011;3098;42.678;23.364;2024-03-23T10:44:30;13.30;;;7.50;;
6133;SDS011;3098;42.678;23.364;2024-03-23T10:47:00;14.65;;;7.55;;
6133;SDS011;3098;42.678;23.364;2024-03-23T10:49:28;11.15;;;6.72;;
6133;SDS011;3098;42.678;23.364;2024-03-23T10:51:55;11.75;;;6.32;;
6133;SDS011;3098;42.678;23.364;2024-03-23T10:54:23;10.73;;;5.78;;
6133;SDS011;3098;42.678;23.364;2024-03-23T10:56:51;11.93;;;6.07;;
6133;SDS011;3098;42.678;23.364;2024-03-23T10:59:23;13.68;;;6.30;;
6133;SDS011;3098;42.678;23.364;2024-03-23T11:01:54;10.15;;;5.35;;
6133;SDS011;3098;42.678;23.364;2024-03-23T11:04:36;13.93;;;6.25;;
6133;SDS011;3098;42.678;23.364;2024-03-23T11:09:49;10.55;;;6.03;;
6133;SDS011;3098;42.678;23.364;2024-03-23T11:14:50;9.23;;;5.90;;
6133;SDS011;3098;42.678;23.364;2024-03-23T11:17:20;10.55;;;5.65;;
6133;SDS011;3098;42.678;23.364;2024-03-23T11:19:53;9.50;;;5.32;;
6133;SDS011;3098;42.678;23.364;2024-03-23T11:25:20;15.60;;;5.55;;
6133;SDS011;3098;42.678;23.364;2024-03-23T11:27:47;9.77;;;6.15;;
6133;SDS011;3098;42.678;23.364;2024-03-23T11:30:19;11.20;;;5.50;;
6133;SDS011;3098;42.678;23.364;2024-03-23T11:32:45;10.23;;;5.82;;
6133;SDS011;3098;42.678;23.364;2024-03-23T11:35:24;10.70;;;6.10;;
6133;SDS011;3098;42.678;23.364;2024-03-23T11:40:35;9.77;;;5.57;;
6133;SDS011;3098;42.678;23.364;2024-03-23T11:43:03;12.38;;;5.88;;
6133;SDS011;3098;42.678;23.364;2024-03-23T11:45:33;9.32;;;5.20;;
6133;SDS011;3098;42.678;23.364;2024-03-23T11:48:07;8.93;;;5.47;;
6133;SDS011;3098;42.678;23.364;2024-03-23T11:50:38;12.40;;;5.57;;
6133;SDS011;3098;42.678;23.364;2024-03-23T11:53:19;9.15;;;5.15;;
6133;SDS011;3098;42.678;23.364;2024-03-23T11:55:47;11.55;;;5.30;;
6133;SDS011;3098;42.678;23.364;2024-03-23T11:58:20;8.63;;;4.82;;
6133;SDS011;3098;42.678;23.364;2024-03-23T12:03:29;9.07;;;5.53;;
6133;SDS011;3098;42.678;23.364;2024-03-23T12:05:58;19.05;;;6.18;;
6133;SDS011;3098;42.678;23.364;2024-03-23T12:08:29;8.52;;;5.20;;
6133;SDS011;3098;42.678;23.364;2024-03-23T12:11:05;8.77;;;5.13;;
6133;SDS011;3098;42.678;23.364;2024-03-23T12:13:32;10.85;;;4.63;;
6133;SDS011;3098;42.678;23.364;2024-03-23T12:16:14;11.00;;;5.15;;
6133;SDS011;3098;42.678;23.364;2024-03-23T12:18:47;6.95;;;4.88;;
6133;SDS011;3098;42.678;23.364;2024-03-23T12:21:17;8.63;;;4.47;;
6133;SDS011;3098;42.678;23.364;2024-03-23T12:23:43;9.30;;;4.65;;
6133;SDS011;3098;42.678;23.364;2024-03-23T12:26:10;8.90;;;4.70;;
6133;SDS011;3098;42.678;23.364;2024-03-23T12:28:37;11.40;;;4.95;;
6133;SDS011;3098;42.678;23.364;2024-03-23T12:31:02;7.95;;;4.05;;
6133;SDS011;3098;42.678;23.364;2024-03-23T12:33:28;12.43;;;3.65;;
6133;SDS011;3098;42.678;23.364;2024-03-23T12:35:54;6.85;;;3.47;;
6133;SDS011;3098;42.678;23.364;2024-03-23T12:38:20;5.43;;;3.50;;
6133;SDS011;3098;42.678;23.364;2024-03-23T12:40:49;5.80;;;3.42;;
6133;SDS011;3098;42.678;23.364;2024-03-23T12:43:16;5.75;;;3.42;;
6133;SDS011;3098;42.678;23.364;2024-03-23T12:45:48;8.77;;;4.20;;
6133;SDS011;3098;42.678;23.364;2024-03-23T12:48:14;5.85;;;3.55;;
6133;SDS011;3098;42.678;23.364;2024-03-23T12:50:41;8.25;;;3.63;;
6133;SDS011;3098;42.678;23.364;2024-03-23T12:53:08;6.57;;;3.70;;
6133;SDS011;3098;42.678;23.364;2024-03-23T12:55:36;5.78;;;3.83;;
6133;SDS011;3098;42.678;23.364;2024-03-23T12:58:03;6.63;;;4.05;;
6133;SDS011;3098;42.678;23.364;2024-03-23T13:00:29;4.38;;;2.63;;
6133;SDS011;3098;42.678;23.364;2024-03-23T13:02:55;6.20;;;2.78;;
6133;SDS011;3098;42.678;23.364;2024-03-23T13:05:21;6.32;;;3.00;;
6133;SDS011;3098;42.678;23.364;2024-03-23T13:07:46;6.32;;;2.80;;
6133;SDS011;3098;42.678;23.364;2024-03-23T13:10:12;6.45;;;2.90;;
6133;SDS011;3098;42.678;23.364;2024-03-23T13:12:39;4.85;;;2.97;;
6133;SDS011;3098;42.678;23.364;2024-03-23T13:15:05;7.13;;;3.28;;
6133;SDS011;3098;42.678;23.364;2024-03-23T13:17:31;5.22;;;2.53;;
6133;SDS011;3098;42.678;23.364;2024-03-23T13:19:56;4.82;;;2.40;;
6133;SDS011;3098;42.678;23.364;2024-03-23T13:22:22;5.85;;;3.15;;
6133;SDS011;3098;42.678;23.364;2024-03-23T13:24:48;10.73;;;4.00;;
6133;SDS011;3098;42.678;23.364;2024-03-23T13:27:15;5.40;;;3.40;;
6133;SDS011;3098;42.678;23.364;2024-03-23T13:29:41;7.78;;;3.75;;
6133;SDS011;3098;42.678;23.364;2024-03-23T13:32:07;7.85;;;3.75;;
6133;SDS011;3098;42.678;23.364;2024-03-23T13:34:34;5.50;;;3.33;;
6133;SDS011;3098;42.678;23.364;2024-03-23T13:37:00;6.10;;;3.45;;
6133;SDS011;3098;42.678;23.364;2024-03-23T13:39:25;5.18;;;2.80;;
6133;SDS011;3098;42.678;23.364;2024-03-23T13:41:54;4.30;;;2.25;;
6133;SDS011;3098;42.678;23.364;2024-03-23T13:44:20;6.35;;;3.30;;
6133;SDS011;3098;42.678;23.364;2024-03-23T13:46:46;2.42;;;1.60;;
6133;SDS011;3098;42.678;23.364;2024-03-23T13:49:26;2.75;;;1.00;;
6133;SDS011;3098;42.678;23.364;2024-03-23T13:51:56;2.13;;;1.30;;
6133;SDS011;3098;42.678;23.364;2024-03-23T13:54:23;38.80;;;18.13;;
6133;SDS011;3098;42.678;23.364;2024-03-23T13:56:52;13.13;;;7.32;;
6133;SDS011;3098;42.678;23.364;2024-03-23T13:59:22;1.45;;;0.77;;
6133;SDS011;3098;42.678;23.364;2024-03-23T14:01:49;3.15;;;1.13;;
6133;SDS011;3098;42.678;23.364;2024-03-23T14:04:16;2.38;;;1.40;;
6133;SDS011;3098;42.678;23.364;2024-03-23T14:06:42;2.83;;;1.02;;
6133;SDS011;3098;42.678;23.364;2024-03-23T14:09:10;3.97;;;1.33;;
6133;SDS011;3098;42.678;23.364;2024-03-23T14:11:36;1.92;;;1.05;;
6133;SDS011;3098;42.678;23.364;2024-03-23T14:14:02;1.70;;;1.05;;
6133;SDS011;3098;42.678;23.364;2024-03-23T14:16:29;3.92;;;0.95;;
6133;SDS011;3098;42.678;23.364;2024-03-23T14:18:58;1.88;;;0.90;;
6133;SDS011;3098;42.678;23.364;2024-03-23T14:21:25;2.67;;;1.05;;
6133;SDS011;3098;42.678;23.364;2024-03-23T14:23:51;2.67;;;1.25;;
6133;SDS011;3098;42.678;23.364;2024-03-23T14:26:16;2.70;;;1.10;;
6133;SDS011;3098;42.678;23.364;2024-03-23T14:28:42;1.73;;;1.00;;
6133;SDS011;3098;42.678;23.364;2024-03-23T14:31:08;3.15;;;1.00;;
6133;SDS011;3098;42.678;23.364;2024-03-23T14:33:39;2.65;;;1.20;;
6133;SDS011;3098;42.678;23.364;2024-03-23T14:36:11;2.92;;;1.20;;
6133;SDS011;3098;42.678;23.364;2024-03-23T14:38:37;2.80;;;0.93;;
6133;SDS011;3098;42.678;23.364;2024-03-23T14:41:03;0.95;;;0.80;;
6133;SDS011;3098;42.678;23.364;2024-03-23T14:43:30;1.42;;;0.90;;
6133;SDS011;3098;42.678;23.364;2024-03-23T14:46:06;1.42;;;0.80;;
6133;SDS011;3098;42.678;23.364;2024-03-23T14:48:33;2.70;;;1.13;;
6133;SDS011;3098;42.678;23.364;2024-03-23T14:50:59;1.88;;;1.40;;
6133;SDS011;3098;42.678;23.364;2024-03-23T14:53:26;2.70;;;1.30;;
6133;SDS011;3098;42.678;23.364;2024-03-23T14:55:55;1.50;;;0.85;;
6133;SDS011;3098;42.678;23.364;2024-03-23T14:58:22;6.15;;;1.40;;
6133;SDS011;3098;42.678;23.364;2024-03-23T15:00:49;2.70;;;1.42;;
6133;SDS011;3098;42.678;23.364;2024-03-23T15:03:15;1.55;;;0.90;;
6133;SDS011;3098;42.678;23.364;2024-03-23T15:05:41;2.28;;;1.20;;
6133;SDS011;3098;42.678;23.364;2024-03-23T15:08:07;0.77;;;0.70;;
6133;SDS011;3098;42.678;23.364;2024-03-23T15:10:33;1.70;;;1.10;;
6133;SDS011;3098;42.678;23.364;2024-03-23T15:12:59;1.40;;;0.82;;
6133;SDS011;3098;42.678;23.364;2024-03-23T15:15:25;1.80;;;1.20;;
6133;SDS011;3098;42.678;23.364;2024-03-23T15:17:50;3.47;;;1.95;;
6133;SDS011;3098;42.678;23.364;2024-03-23T15:20:16;1.45;;;1.10;;
6133;SDS011;3098;42.678;23.364;2024-03-23T15:22:42;2.25;;;1.35;;
6133;SDS011;3098;42.678;23.364;2024-03-23T15:25:07;3.15;;;1.67;;
6133;SDS011;3098;42.678;23.364;2024-03-23T15:27:33;4.50;;;2.55;;
6133;SDS011;3098;42.678;23.364;2024-03-23T15:29:59;3.10;;;1.50;;
6133;SDS011;3098;42.678;23.364;2024-03-23T15:32:25;3.85;;;1.35;;
6133;SDS011;3098;42.678;23.364;2024-03-23T15:34:50;2.97;;;2.00;;
6133;SDS011;3098;42.678;23.364;2024-03-23T15:37:17;2.80;;;1.35;;
6133;SDS011;3098;42.678;23.364;2024-03-23T15:39:43;3.30;;;1.40;;
6133;SDS011;3098;42.678;23.364;2024-03-23T15:42:08;2.28;;;1.30;;
6133;SDS011;3098;42.678;23.364;2024-03-23T15:44:35;2.78;;;1.60;;
6133;SDS011;3098;42.678;23.364;2024-03-23T15:47:02;4.80;;;1.52;;
6133;SDS011;3098;42.678;23.364;2024-03-23T15:49:27;2.35;;;1.30;;
6133;SDS011;3098;42.678;23.364;2024-03-23T15:51:53;2.53;;;1.40;;
6133;SDS011;3098;42.678;23.364;2024-03-23T15:54:19;3.50;;;1.20;;
6133;SDS011;3098;42.678;23.364;2024-03-23T15:56:46;2.78;;;1.55;;
6133;SDS011;3098;42.678;23.364;2024-03-23T15:59:12;2.13;;;1.40;;
6133;SDS011;3098;42.678;23.364;2024-03-23T16:01:37;2.13;;;1.40;;
6133;SDS011;3098;42.678;23.364;2024-03-23T16:04:03;3.50;;;1.30;;